Terminal Aerodrome Forecast
Issued by NWS

Home | Current Version | Previous Version | Text Only | Print | Product List | Glossary On
Versions: 1 2 3 4 5 6 7 8 9 10 11 12 13 14
000
FTAK31 PAJN 270500
TAFAWG
TAF
PAWG 270526Z 2706/2806 27007KT P6SM SCT050 BKN150
     FM270800 27006KT P6SM BKN040
     FM271000 VRB04KT P6SM BKN025
     FM271200 VRB04KT P6SM VCSH BKN018 OVC050
     FM271500 26005KT P6SM -RA BKN018 OVC035
     FM271900 28009KT P6SM VCSH SCT020 BKN035 OVC050
     FM280000 32008KT P6SM BKN050 BKN080
      AMD LTD TO CLD VIS AND WIND 2706/2715=

USA.gov is the U.S. government's official web portal to all federal, state and local government web resources and services.